CW3467 Sant Marti de Canals ES current weather conditions

sailwx.info

Wind from 225 at 1 knots gusting 4

Air temperature 25.0° C
Dewpoint 8.9° C

Last reported at 2016-Sep-28 14:07 UTC.
Time now 2016-Sep-28 15:28 UTC

Location: N 42°14' E 000°59'.
View on Google Maps.

See reports from other nearby stations

  
Tides and Currents Weather Stations Pressure Air Temp Water Temp Dewpoint Dewpoint Depression Visibility Wind Speed Wind Dir Waves Ship Positions
date/time (UTC)wind fromknots sea level pressurealtimeterstation pressurevisibilityair tempwater tempwave heightnotes
2016-Sep-28 14:07 225 1 gusting 4 25.0
2016-Sep-28 13:37 249 1 gusting 3 24.4
2016-Sep-28 11:07 246 0 gusting 4 22.2
2016-Sep-28 10:07 148 21.1
2016-Sep-28 09:07 150 0 gusting 2 18.9
2016-Sep-28 08:07 222 0 gusting 1 16.1
2016-Sep-28 07:37 177 15.6
2016-Sep-28 07:07 070 12.8
2016-Sep-28 05:37 033 12.2
2016-Sep-28 05:07 030 0 gusting 1 12.2
2016-Sep-28 02:07 346 2 gusting 3 15.0
2016-Sep-27 23:07 106 3 gusting 3 17.8
2016-Sep-27 22:07 026 0 gusting 1 17.8
2016-Sep-27 21:37 034 17.8
2016-Sep-27 21:07 001 1 gusting 3 17.8
2016-Sep-27 20:07 051 18.9
2016-Sep-27 19:37 101 2 gusting 2 20.0
2016-Sep-27 18:07 147 2 gusting 4 21.1
2016-Sep-27 16:37 162 3 gusting 6 22.8
2016-Sep-27 16:07 217 6 gusting 7 23.9
2016-Sep-27 15:37 299 2 gusting 6 23.9
2016-Sep-27 15:07 212 0 gusting 4 25.0
2016-Sep-27 14:37 236 0 gusting 6 24.4
2016-Sep-27 14:07 219 0 gusting 5 23.9
2016-Sep-27 13:38 129 2 gusting 6 23.3
2016-Sep-27 12:38 200 2 gusting 4 22.2
2016-Sep-27 12:07 210 0 gusting 3 21.7
2016-Sep-27 11:37 205 0 gusting 2 20.6
2016-Sep-27 11:07 237 20.0
2016-Sep-27 10:07 225 18.3
2016-Sep-27 09:07 200 1 gusting 3 16.7
2016-Sep-27 08:07 153 16.1
2016-Sep-27 07:37 230 14.4
2016-Sep-27 06:07 146 0 gusting 2 12.2
2016-Sep-27 05:07 101 12.2
2016-Sep-27 03:07 049 12.8
2016-Sep-27 00:37 131 0 gusting 0 13.9
2016-Sep-27 00:07 090 13.9
2016-Sep-26 23:37 100 14.4
2016-Sep-26 23:07 108 14.4
2016-Sep-26 22:07 139 14.4
2016-Sep-26 21:07 146 14.4
2016-Sep-26 19:37 098 0 gusting 1 15.0
2016-Sep-26 15:07 290 2 gusting 4 24.4